Overview Statistics Trail Chart Weather Telemetry Raw packets
 

This is the latest recevied weather packets stored in our database for station/object SP9MUF-14. If no packets are shown the sender has not sent any weather packets the latest 10 day(s).

<< 19 20 21 22 23 24 25 >>
Time Temp. Humidity Pressure Rain* Wind** Luminosity Snow
1788118713 20° C 73% 1015.2 hPa 0 mm - 0 W/m² -
1788118411 20° C 74% 1015.3 hPa 0 mm - 0 W/m² -
1788117806 20° C 73% 1015.3 hPa 0 mm - 0 W/m² -
1788115993 20.56° C 68% 1015.1 hPa 0 mm - 0 W/m² -
1788115691 20.56° C 68% 1015.1 hPa 0 mm - 0 W/m² -
1788115398 20.56° C 66% 1015 hPa 0 mm - 0 W/m² -
1788115087 20.56° C 66% 1015 hPa 0 mm - 0 W/m² -
1788114785 21.67° C 64% 1015 hPa 0 mm - 0 W/m² -
1788114180 21.67° C 63% 1014.9 hPa 0 mm - 0 W/m² -
1788113878 22.78° C 60% 1014.8 hPa 0 mm - 0 W/m² -
1788113576 22.78° C 61% 1014.9 hPa 0 mm - 0 W/m² -
1788112972 22.78° C 61% 1014.7 hPa 0 mm - 0 W/m² -
1788112680 22.78° C 60% 1014.6 hPa 0 mm - 0 W/m² -
1788112367 22.78° C 60% 1014.5 hPa 0 mm - 0 W/m² -
1788112065 23.89° C 59% 1014.5 hPa 0 mm - 0 W/m² -
1788111763 23.89° C 58% 1014.5 hPa 0 mm - 0 W/m² -
1788111159 23.89° C 54% 1014.3 hPa 0 mm - 1 W/m² -
1788110555 25° C 53% 1014.1 hPa 0 mm - 4 W/m² -
1788110253 25° C 50% 1014 hPa 0 mm - 5 W/m² -
1788109950 25° C 49% 1014 hPa 0 mm - 7 W/m² -
1788109346 25.56° C 48% 1013.9 hPa 0 mm - 16 W/m² -
1788109044 26.67° C 46% 1013.8 hPa 0 mm - 17 W/m² -
1788108440 27.78° C 41% 1013.6 hPa 0 mm - 33 W/m² -
1788108137 27.78° C 41% 1013.6 hPa 0 mm - 35 W/m² -
1788107835 27.78° C 41% 1013.5 hPa 0 mm - 36 W/m² -

* Rain latest hour (hover to see other rain measurements)
** Current wind speed in m/s (hover to see current wind gust speed)